PWSweather.com
Personal Weather Stations
Station Observations
SPARKSRC
St. Petersburg, FL 33716

St. Petersburg, FL 33716

Lat: 27.876101, Lon: -82.657194

Elevation: 13

Station Type: Zephyr PWS-1000TD

High Low Average
Temperature 84.9°F29.4°F 78.3°F25.7°F 80.6°F27.0°F
Dew Point 68.6°F20.3°F 65.6°F18.7°F 66.9°F19.4°F
Winds 9.2 mph SE14.8 mph SE Calm Calm 3.6 mph 5.8 mph
Wind Gusts 13.6 mph21.9 mph 2.2 mph3.5 mph 7.3 mph11.7 mph
Humidity 65% 58% 63%
Pressure 29.79 in1008.80 in 29.70 in1005.80 in -
Precipitation 0.00 in0.00 in - -
Hour Temp Dew Point Humidity Winds Wind Gusts Pressure Precip Precip Rate Daily Precip Total
12:00 AM 76.6°F24.8°C 64.5°F18.1°C 66% Calm Calm 1.6 mph2.6 kmh 29.76 in1007.8 mb 0.00 in0.0 mm 0.00 in0.0 mm 0.00 in0.0 mm
12:05 AM 76.6°F24.8°C 64.5°F18.1°C 66% 0.7 mph S1.1 kmh S 2.2 mph3.5 kmh 29.76 in1007.8 mb 0.00 in0.0 mm 0.00 in0.0 mm 0.00 in0.0 mm
12:10 AM 76.8°F24.9°C 64.6°F18.1°C 66% 0.7 mph ENE1.1 kmh ENE 3.1 mph5.0 kmh 29.76 in1007.8 mb 0.00 in0.0 mm 0.00 in0.0 mm 0.00 in0.0 mm
12:15 AM 77.0°F25.0°C 64.8°F18.2°C 66% 2.2 mph NE3.5 kmh NE 3.1 mph5.0 kmh 29.76 in1007.8 mb 0.00 in0.0 mm 0.00 in0.0 mm 0.00 in0.0 mm
12:20 AM 77.2°F25.1°C 65.4°F18.6°C 67% 3.8 mph NE6.1 kmh NE 5.4 mph8.7 kmh 29.77 in1008.1 mb 0.00 in0.0 mm 0.00 in0.0 mm 0.00 in0.0 mm
12:25 AM 77.4°F25.2°C 66.0°F18.9°C 68% 4.5 mph NE7.2 kmh NE 6.9 mph11.1 kmh 29.76 in1007.8 mb 0.00 in0.0 mm 0.00 in0.0 mm 0.00 in0.0 mm
12:30 AM 77.4°F25.2°C 66.0°F18.9°C 68% 4.5 mph NE7.2 kmh NE 6.9 mph11.1 kmh 29.76 in1007.8 mb 0.00 in0.0 mm 0.00 in0.0 mm 0.00 in0.0 mm
12:35 AM 77.5°F25.3°C 66.2°F19.0°C 68% 3.8 mph NE6.1 kmh NE 6.9 mph11.1 kmh 29.76 in1007.8 mb 0.00 in0.0 mm 0.00 in0.0 mm 0.00 in0.0 mm
12:40 AM 77.4°F25.2°C 66.4°F19.1°C 69% 4.5 mph NE7.2 kmh NE 7.6 mph12.2 kmh 29.76 in1007.8 mb 0.00 in0.0 mm 0.00 in0.0 mm 0.00 in0.0 mm
12:45 AM 77.5°F25.3°C 66.6°F19.2°C 69% 5.4 mph NE8.7 kmh NE 7.6 mph12.2 kmh 29.75 in1007.5 mb 0.00 in0.0 mm 0.00 in0.0 mm 0.00 in0.0 mm
12:50 AM 77.5°F25.3°C 67.0°F19.4°C 70% 4.5 mph NE7.2 kmh NE 7.6 mph12.2 kmh 29.75 in1007.5 mb 0.00 in0.0 mm 0.00 in0.0 mm 0.00 in0.0 mm
12:55 AM 77.4°F25.2°C 66.9°F19.4°C 70% 2.2 mph NE3.5 kmh NE 7.6 mph12.2 kmh 29.75 in1007.5 mb 0.00 in0.0 mm 0.00 in0.0 mm 0.00 in0.0 mm
01:00 AM 77.4°F25.2°C 66.9°F19.4°C 70% 4.5 mph NE7.2 kmh NE 7.6 mph12.2 kmh 29.74 in1007.1 mb 0.00 in0.0 mm 0.00 in0.0 mm 0.00 in0.0 mm
01:05 AM 77.4°F25.2°C 66.9°F19.4°C 70% 4.5 mph NNE7.2 kmh NNE 7.6 mph12.2 kmh 29.73 in1006.8 mb 0.00 in0.0 mm 0.00 in0.0 mm 0.00 in0.0 mm
01:10 AM 77.2°F25.1°C 67.1°F19.5°C 71% 4.5 mph NNE7.2 kmh NNE 7.6 mph12.2 kmh 29.74 in1007.1 mb 0.00 in0.0 mm 0.00 in0.0 mm 0.00 in0.0 mm
01:15 AM 77.2°F25.1°C 67.1°F19.5°C 71% 3.1 mph NE5.0 kmh NE 6.9 mph11.1 kmh 29.74 in1007.1 mb 0.00 in0.0 mm 0.00 in0.0 mm 0.00 in0.0 mm
01:20 AM 77.2°F25.1°C 67.1°F19.5°C 71% 3.1 mph NE5.0 kmh NE 6.9 mph11.1 kmh 29.73 in1006.8 mb 0.00 in0.0 mm 0.00 in0.0 mm 0.00 in0.0 mm
01:25 AM 76.8°F24.9°C 66.7°F19.3°C 71% 1.6 mph NNE2.6 kmh NNE 6.0 mph9.7 kmh 29.73 in1006.8 mb 0.00 in0.0 mm 0.00 in0.0 mm 0.00 in0.0 mm
01:30 AM 76.6°F24.8°C 66.6°F19.2°C 71% 2.2 mph NNE3.5 kmh NNE 4.5 mph7.2 kmh 29.73 in1006.8 mb 0.00 in0.0 mm 0.00 in0.0 mm 0.00 in0.0 mm
01:35 AM 76.5°F24.7°C 66.4°F19.1°C 71% 5.4 mph NNE8.7 kmh NNE 6.9 mph11.1 kmh 29.73 in1006.8 mb 0.00 in0.0 mm 0.00 in0.0 mm 0.00 in0.0 mm
01:40 AM 76.5°F24.7°C 66.8°F19.3°C 72% 2.2 mph NE3.5 kmh NE 6.9 mph11.1 kmh 29.72 in1006.4 mb 0.00 in0.0 mm 0.00 in0.0 mm 0.00 in0.0 mm
01:45 AM 76.6°F24.8°C 67.0°F19.4°C 72% 2.2 mph NE3.5 kmh NE 6.9 mph11.1 kmh 29.73 in1006.8 mb 0.00 in0.0 mm 0.00 in0.0 mm 0.00 in0.0 mm
01:50 AM 76.1°F24.5°C 66.5°F19.2°C 72% 1.6 mph NNE2.6 kmh NNE 5.4 mph8.7 kmh 29.72 in1006.4 mb 0.00 in0.0 mm 0.00 in0.0 mm 0.00 in0.0 mm
01:55 AM 76.1°F24.5°C 66.5°F19.2°C 72% 3.1 mph NNE5.0 kmh NNE 6.0 mph9.7 kmh 29.73 in1006.8 mb 0.00 in0.0 mm 0.00 in0.0 mm 0.00 in0.0 mm
02:00 AM 76.3°F24.6°C 66.6°F19.2°C 72% 0.7 mph NE1.1 kmh NE 6.0 mph9.7 kmh 29.72 in1006.4 mb 0.00 in0.0 mm 0.00 in0.0 mm 0.00 in0.0 mm
02:05 AM 76.3°F24.6°C 66.6°F19.2°C 72% 0.7 mph ENE1.1 kmh ENE 4.5 mph7.2 kmh 29.71 in1006.1 mb 0.00 in0.0 mm 0.00 in0.0 mm 0.00 in0.0 mm
02:10 AM 76.1°F24.5°C 66.5°F19.2°C 72% 1.6 mph E2.6 kmh E 2.2 mph3.5 kmh 29.72 in1006.4 mb 0.00 in0.0 mm 0.00 in0.0 mm 0.00 in0.0 mm
02:15 AM 75.7°F24.3°C 65.7°F18.7°C 71% 1.6 mph SSE2.6 kmh SSE 3.8 mph6.1 kmh 29.72 in1006.4 mb 0.00 in0.0 mm 0.00 in0.0 mm 0.00 in0.0 mm
02:20 AM 75.6°F24.2°C 65.5°F18.6°C 71% 1.6 mph SSE2.6 kmh SSE 3.8 mph6.1 kmh 29.72 in1006.4 mb 0.00 in0.0 mm 0.00 in0.0 mm 0.00 in0.0 mm
02:25 AM 75.4°F24.1°C 65.4°F18.6°C 71% 0.7 mph E1.1 kmh E 3.1 mph5.0 kmh 29.71 in1006.1 mb 0.00 in0.0 mm 0.00 in0.0 mm 0.00 in0.0 mm
02:30 AM 75.0°F23.9°C 65.0°F18.3°C 71% Calm Calm 2.2 mph3.5 kmh 29.72 in1006.4 mb 0.00 in0.0 mm 0.00 in0.0 mm 0.00 in0.0 mm
02:35 AM 74.8°F23.8°C 64.8°F18.2°C 71% 2.2 mph NW3.5 kmh NW 3.1 mph5.0 kmh 29.72 in1006.4 mb 0.00 in0.0 mm 0.00 in0.0 mm 0.00 in0.0 mm
02:40 AM 74.8°F23.8°C 64.8°F18.2°C 71% 1.6 mph WNW2.6 kmh WNW 3.1 mph5.0 kmh 29.72 in1006.4 mb 0.00 in0.0 mm 0.00 in0.0 mm 0.00 in0.0 mm
02:45 AM 74.5°F23.6°C 64.5°F18.1°C 71% 0.7 mph W1.1 kmh W 3.1 mph5.0 kmh 29.71 in1006.1 mb 0.00 in0.0 mm 0.00 in0.0 mm 0.00 in0.0 mm
02:50 AM 74.3°F23.5°C 64.3°F17.9°C 71% 1.6 mph W2.6 kmh W 2.2 mph3.5 kmh 29.71 in1006.1 mb 0.00 in0.0 mm 0.00 in0.0 mm 0.00 in0.0 mm
02:55 AM 74.1°F23.4°C 64.2°F17.9°C 71% 1.6 mph SW2.6 kmh SW 3.1 mph5.0 kmh 29.71 in1006.1 mb 0.00 in0.0 mm 0.00 in0.0 mm 0.00 in0.0 mm
03:00 AM 73.9°F23.3°C 64.0°F17.8°C 71% 3.1 mph S5.0 kmh S 4.5 mph7.2 kmh 29.72 in1006.4 mb 0.00 in0.0 mm 0.00 in0.0 mm 0.00 in0.0 mm
03:05 AM 73.8°F23.2°C 63.8°F17.7°C 71% 3.1 mph S5.0 kmh S 4.5 mph7.2 kmh 29.71 in1006.1 mb 0.00 in0.0 mm 0.00 in0.0 mm 0.00 in0.0 mm
03:10 AM 73.6°F23.1°C 63.6°F17.6°C 71% 3.8 mph S6.1 kmh S 4.5 mph7.2 kmh 29.72 in1006.4 mb 0.00 in0.0 mm 0.00 in0.0 mm 0.00 in0.0 mm
03:15 AM 73.4°F23.0°C 63.5°F17.5°C 71% 1.6 mph S2.6 kmh S 4.5 mph7.2 kmh 29.71 in1006.1 mb 0.00 in0.0 mm 0.00 in0.0 mm 0.00 in0.0 mm
03:20 AM 73.4°F23.0°C 63.5°F17.5°C 71% Calm Calm 4.5 mph7.2 kmh 29.71 in1006.1 mb 0.00 in0.0 mm 0.00 in0.0 mm 0.00 in0.0 mm
03:25 AM 73.0°F22.8°C 63.1°F17.3°C 71% 0.7 mph SE1.1 kmh SE 2.2 mph3.5 kmh 29.71 in1006.1 mb 0.00 in0.0 mm 0.00 in0.0 mm 0.00 in0.0 mm
03:30 AM 73.0°F22.8°C 63.1°F17.3°C 71% Calm Calm 1.6 mph2.6 kmh 29.71 in1006.1 mb 0.00 in0.0 mm 0.00 in0.0 mm 0.00 in0.0 mm
03:35 AM 72.9°F22.7°C 62.9°F17.2°C 71% 2.2 mph SSW3.5 kmh SSW 3.1 mph5.0 kmh 29.71 in1006.1 mb 0.00 in0.0 mm 0.00 in0.0 mm 0.00 in0.0 mm
03:40 AM 72.9°F22.7°C 62.9°F17.2°C 71% 2.2 mph SSW3.5 kmh SSW 3.1 mph5.0 kmh 29.71 in1006.1 mb 0.00 in0.0 mm 0.00 in0.0 mm 0.00 in0.0 mm
03:45 AM 72.9°F22.7°C 62.9°F17.2°C 71% 1.6 mph SW2.6 kmh SW 3.1 mph5.0 kmh 29.70 in1005.8 mb 0.00 in0.0 mm 0.00 in0.0 mm 0.00 in0.0 mm
03:50 AM 72.5°F22.5°C 62.6°F17.0°C 71% Calm Calm 3.1 mph5.0 kmh 29.71 in1006.1 mb 0.00 in0.0 mm 0.00 in0.0 mm 0.00 in0.0 mm
03:55 AM 72.5°F22.5°C 62.6°F17.0°C 71% Calm Calm 2.2 mph3.5 kmh 29.70 in1005.8 mb 0.00 in0.0 mm 0.00 in0.0 mm 0.00 in0.0 mm
04:00 AM 72.5°F22.5°C 62.6°F17.0°C 71% 2.2 mph E3.5 kmh E 3.1 mph5.0 kmh 29.70 in1005.8 mb 0.00 in0.0 mm 0.00 in0.0 mm 0.00 in0.0 mm
04:05 AM 72.7°F22.6°C 62.8°F17.1°C 71% 1.6 mph SE2.6 kmh SE 3.8 mph6.1 kmh 29.70 in1005.8 mb 0.00 in0.0 mm 0.00 in0.0 mm 0.00 in0.0 mm
04:10 AM 72.5°F22.5°C 62.6°F17.0°C 71% 1.6 mph SE2.6 kmh SE 3.8 mph6.1 kmh 29.70 in1005.8 mb 0.00 in0.0 mm 0.00 in0.0 mm 0.00 in0.0 mm
04:15 AM 72.5°F22.5°C 62.6°F17.0°C 71% 0.7 mph SE1.1 kmh SE 3.1 mph5.0 kmh 29.70 in1005.8 mb 0.00 in0.0 mm 0.00 in0.0 mm 0.00 in0.0 mm
04:20 AM 72.3°F22.4°C 62.4°F16.9°C 71% Calm Calm 2.2 mph3.5 kmh 29.70 in1005.8 mb 0.00 in0.0 mm 0.00 in0.0 mm 0.00 in0.0 mm
04:25 AM 72.1°F22.3°C 62.2°F16.8°C 71% 0.7 mph ESE1.1 kmh ESE 1.6 mph2.6 kmh 29.70 in1005.8 mb 0.00 in0.0 mm 0.00 in0.0 mm 0.00 in0.0 mm
04:30 AM 72.1°F22.3°C 62.2°F16.8°C 71% 1.6 mph SSE2.6 kmh SSE 2.2 mph3.5 kmh 29.71 in1006.1 mb 0.00 in0.0 mm 0.00 in0.0 mm 0.00 in0.0 mm
04:35 AM 72.0°F22.2°C 62.1°F16.7°C 71% 1.6 mph SSE2.6 kmh SSE 3.1 mph5.0 kmh 29.70 in1005.8 mb 0.00 in0.0 mm 0.00 in0.0 mm 0.00 in0.0 mm
04:40 AM 72.1°F22.3°C 62.2°F16.8°C 71% 1.6 mph SSE2.6 kmh SSE 3.8 mph6.1 kmh 29.70 in1005.8 mb 0.00 in0.0 mm 0.00 in0.0 mm 0.00 in0.0 mm
04:45 AM 72.3°F22.4°C 62.0°F16.7°C 70% Calm Calm 3.8 mph6.1 kmh 29.71 in1006.1 mb 0.00 in0.0 mm 0.00 in0.0 mm 0.00 in0.0 mm
04:50 AM 72.1°F22.3°C 61.8°F16.6°C 70% 2.2 mph SSW3.5 kmh SSW 3.1 mph5.0 kmh 29.70 in1005.8 mb 0.00 in0.0 mm 0.00 in0.0 mm 0.00 in0.0 mm
04:55 AM 72.3°F22.4°C 62.0°F16.7°C 70% 3.8 mph SSW6.1 kmh SSW 4.5 mph7.2 kmh 29.70 in1005.8 mb 0.00 in0.0 mm 0.00 in0.0 mm 0.00 in0.0 mm
05:00 AM 72.1°F22.3°C 61.8°F16.6°C 70% 3.8 mph SSW6.1 kmh SSW 4.5 mph7.2 kmh 29.70 in1005.8 mb 0.00 in0.0 mm 0.00 in0.0 mm 0.00 in0.0 mm
05:05 AM 72.3°F22.4°C 62.0°F16.7°C 70% 0.7 mph S1.1 kmh S 4.5 mph7.2 kmh 29.70 in1005.8 mb 0.00 in0.0 mm 0.00 in0.0 mm 0.00 in0.0 mm
05:10 AM 72.3°F22.4°C 62.0°F16.7°C 70% 2.2 mph S3.5 kmh S 4.5 mph7.2 kmh 29.71 in1006.1 mb 0.00 in0.0 mm 0.00 in0.0 mm 0.00 in0.0 mm
05:15 AM 72.1°F22.3°C 61.8°F16.6°C 70% 1.6 mph S2.6 kmh S 3.1 mph5.0 kmh 29.71 in1006.1 mb 0.00 in0.0 mm 0.00 in0.0 mm 0.00 in0.0 mm
05:20 AM 72.0°F22.2°C 61.7°F16.5°C 70% 2.2 mph SSW3.5 kmh SSW 3.1 mph5.0 kmh 29.71 in1006.1 mb 0.00 in0.0 mm 0.00 in0.0 mm 0.00 in0.0 mm
05:25 AM 71.8°F22.1°C 61.9°F16.6°C 71% 0.7 mph S1.1 kmh S 3.1 mph5.0 kmh 29.71 in1006.1 mb 0.00 in0.0 mm 0.00 in0.0 mm 0.00 in0.0 mm
05:30 AM 71.6°F22.0°C 61.7°F16.5°C 71% 1.6 mph WSW2.6 kmh WSW 3.1 mph5.0 kmh 29.71 in1006.1 mb 0.00 in0.0 mm 0.00 in0.0 mm 0.00 in0.0 mm
05:35 AM 71.6°F22.0°C 61.7°F16.5°C 71% Calm Calm 3.1 mph5.0 kmh 29.70 in1005.8 mb 0.00 in0.0 mm 0.00 in0.0 mm 0.00 in0.0 mm
05:40 AM 71.6°F22.0°C 61.7°F16.5°C 71% Calm Calm 2.2 mph3.5 kmh 29.70 in1005.8 mb 0.00 in0.0 mm 0.00 in0.0 mm 0.00 in0.0 mm
05:45 AM 71.6°F22.0°C 61.7°F16.5°C 71% Calm Calm 1.6 mph2.6 kmh 29.70 in1005.8 mb 0.00 in0.0 mm 0.00 in0.0 mm 0.00 in0.0 mm
05:50 AM 71.4°F21.9°C 61.6°F16.4°C 71% 0.7 mph SSE1.1 kmh SSE 1.6 mph2.6 kmh 29.71 in1006.1 mb 0.00 in0.0 mm 0.00 in0.0 mm 0.00 in0.0 mm
05:55 AM 71.4°F21.9°C 61.6°F16.4°C 71% 1.6 mph E2.6 kmh E 2.2 mph3.5 kmh 29.70 in1005.8 mb 0.00 in0.0 mm 0.00 in0.0 mm 0.00 in0.0 mm
06:00 AM 71.4°F21.9°C 61.6°F16.4°C 71% Calm Calm 2.2 mph3.5 kmh 29.71 in1006.1 mb 0.00 in0.0 mm 0.00 in0.0 mm 0.00 in0.0 mm
06:05 AM 71.6°F22.0°C 61.7°F16.5°C 71% 0.7 mph SSE1.1 kmh SSE 2.2 mph3.5 kmh 29.71 in1006.1 mb 0.00 in0.0 mm 0.00 in0.0 mm 0.00 in0.0 mm
06:10 AM 71.4°F21.9°C 61.6°F16.4°C 71% 0.7 mph SSE1.1 kmh SSE 2.2 mph3.5 kmh 29.71 in1006.1 mb 0.00 in0.0 mm 0.00 in0.0 mm 0.00 in0.0 mm
06:15 AM 71.2°F21.8°C 61.0°F16.1°C 70% Calm Calm 2.2 mph3.5 kmh 29.71 in1006.1 mb 0.00 in0.0 mm 0.00 in0.0 mm 0.00 in0.0 mm
06:20 AM 71.2°F21.8°C 61.0°F16.1°C 70% Calm Calm 1.6 mph2.6 kmh 29.71 in1006.1 mb 0.00 in0.0 mm 0.00 in0.0 mm 0.00 in0.0 mm
06:25 AM 71.1°F21.7°C 60.8°F16.0°C 70% Calm Calm 0.7 mph1.1 kmh 29.71 in1006.1 mb 0.00 in0.0 mm 0.00 in0.0 mm 0.00 in0.0 mm
06:30 AM 71.1°F21.7°C 61.2°F16.2°C 71% Calm Calm 0.7 mph1.1 kmh 29.72 in1006.4 mb 0.00 in0.0 mm 0.00 in0.0 mm 0.00 in0.0 mm
06:35 AM 71.1°F21.7°C 61.2°F16.2°C 71% Calm Calm 0.7 mph1.1 kmh 29.72 in1006.4 mb 0.00 in0.0 mm 0.00 in0.0 mm 0.00 in0.0 mm
06:40 AM 70.9°F21.6°C 61.0°F16.1°C 71% Calm Calm 0.7 mph1.1 kmh 29.72 in1006.4 mb 0.00 in0.0 mm 0.00 in0.0 mm 0.00 in0.0 mm
06:45 AM 71.1°F21.7°C 61.2°F16.2°C 71% Calm Calm 0.7 mph1.1 kmh 29.72 in1006.4 mb 0.00 in0.0 mm 0.00 in0.0 mm 0.00 in0.0 mm
06:50 AM 71.1°F21.7°C 61.2°F16.2°C 71% Calm Calm 0.7 mph1.1 kmh 29.72 in1006.4 mb 0.00 in0.0 mm 0.00 in0.0 mm 0.00 in0.0 mm
06:55 AM 70.9°F21.6°C 61.0°F16.1°C 71% 0.7 mph E1.1 kmh E 1.6 mph2.6 kmh 29.72 in1006.4 mb 0.00 in0.0 mm 0.00 in0.0 mm 0.00 in0.0 mm
07:00 AM 70.9°F21.6°C 61.0°F16.1°C 71% 1.6 mph E2.6 kmh E 2.2 mph3.5 kmh 29.72 in1006.4 mb 0.00 in0.0 mm 0.00 in0.0 mm 0.00 in0.0 mm
07:05 AM 71.1°F21.7°C 61.2°F16.2°C 71% 0.7 mph E1.1 kmh E 2.2 mph3.5 kmh 29.72 in1006.4 mb 0.00 in0.0 mm 0.00 in0.0 mm 0.00 in0.0 mm
07:10 AM 71.2°F21.8°C 61.4°F16.3°C 71% 0.7 mph ESE1.1 kmh ESE 2.2 mph3.5 kmh 29.73 in1006.8 mb 0.00 in0.0 mm 0.00 in0.0 mm 0.00 in0.0 mm
07:15 AM 71.4°F21.9°C 61.6°F16.4°C 71% 0.7 mph ESE1.1 kmh ESE 2.2 mph3.5 kmh 29.73 in1006.8 mb 0.00 in0.0 mm 0.00 in0.0 mm 0.00 in0.0 mm
07:20 AM 71.6°F22.0°C 61.7°F16.5°C 71% 1.6 mph E2.6 kmh E 3.8 mph6.1 kmh 29.73 in1006.8 mb 0.00 in0.0 mm 0.00 in0.0 mm 0.00 in0.0 mm
07:25 AM 71.8°F22.1°C 61.9°F16.6°C 71% 1.6 mph E2.6 kmh E 3.8 mph6.1 kmh 29.73 in1006.8 mb 0.00 in0.0 mm 0.00 in0.0 mm 0.00 in0.0 mm
07:30 AM 72.1°F22.3°C 62.2°F16.8°C 71% 2.2 mph E3.5 kmh E 4.5 mph7.2 kmh 29.74 in1007.1 mb 0.00 in0.0 mm 0.00 in0.0 mm 0.00 in0.0 mm
07:35 AM 72.5°F22.5°C 63.0°F17.2°C 72% 3.8 mph SE6.1 kmh SE 6.9 mph11.1 kmh 29.74 in1007.1 mb 0.00 in0.0 mm 0.00 in0.0 mm 0.00 in0.0 mm
07:40 AM 72.9°F22.7°C 63.3°F17.4°C 72% 3.1 mph SE5.0 kmh SE 6.9 mph11.1 kmh 29.73 in1006.8 mb 0.00 in0.0 mm 0.00 in0.0 mm 0.00 in0.0 mm
07:45 AM 73.4°F23.0°C 63.9°F17.7°C 72% 3.8 mph SE6.1 kmh SE 7.6 mph12.2 kmh 29.74 in1007.1 mb 0.00 in0.0 mm 0.00 in0.0 mm 0.00 in0.0 mm
07:50 AM 74.1°F23.4°C 64.6°F18.1°C 72% 2.2 mph SE3.5 kmh SE 7.6 mph12.2 kmh 29.73 in1006.8 mb 0.00 in0.0 mm 0.00 in0.0 mm 0.00 in0.0 mm
07:55 AM 74.7°F23.7°C 65.1°F18.4°C 72% 3.1 mph SE5.0 kmh SE 6.9 mph11.1 kmh 29.73 in1006.8 mb 0.00 in0.0 mm 0.00 in0.0 mm 0.00 in0.0 mm
08:00 AM 75.0°F23.9°C 65.0°F18.3°C 71% 7.6 mph SE12.2 kmh SE 10.7 mph17.2 kmh 29.74 in1007.1 mb 0.00 in0.0 mm 0.00 in0.0 mm 0.00 in0.0 mm
08:05 AM 75.6°F24.2°C 65.9°F18.8°C 72% 7.6 mph SE12.2 kmh SE 13.0 mph20.9 kmh 29.73 in1006.8 mb 0.00 in0.0 mm 0.00 in0.0 mm 0.00 in0.0 mm
08:10 AM 76.3°F24.6°C 66.6°F19.2°C 72% 8.3 mph SE13.4 kmh SE 13.0 mph20.9 kmh 29.74 in1007.1 mb 0.00 in0.0 mm 0.00 in0.0 mm 0.00 in0.0 mm
08:15 AM 76.8°F24.9°C 67.2°F19.6°C 72% 8.3 mph SE13.4 kmh SE 13.0 mph20.9 kmh 29.74 in1007.1 mb 0.00 in0.0 mm 0.00 in0.0 mm 0.00 in0.0 mm
08:20 AM 77.4°F25.2°C 67.7°F19.8°C 72% 7.6 mph SE12.2 kmh SE 12.1 mph19.5 kmh 29.74 in1007.1 mb 0.00 in0.0 mm 0.00 in0.0 mm 0.00 in0.0 mm
08:25 AM 77.9°F25.5°C 68.2°F20.1°C 72% 8.3 mph SE13.4 kmh SE 13.0 mph20.9 kmh 29.75 in1007.5 mb 0.00 in0.0 mm 0.00 in0.0 mm 0.00 in0.0 mm
08:30 AM 78.6°F25.9°C 68.9°F20.5°C 72% 7.6 mph SE12.2 kmh SE 13.0 mph20.9 kmh 29.75 in1007.5 mb 0.00 in0.0 mm 0.00 in0.0 mm 0.00 in0.0 mm
08:35 AM 79.0°F26.1°C 68.8°F20.4°C 71% 8.3 mph SE13.4 kmh SE 15.2 mph24.5 kmh 29.75 in1007.5 mb 0.00 in0.0 mm 0.00 in0.0 mm 0.00 in0.0 mm
08:40 AM 79.5°F26.4°C 69.3°F20.7°C 71% 7.6 mph SE12.2 kmh SE 15.2 mph24.5 kmh 29.75 in1007.5 mb 0.00 in0.0 mm 0.00 in0.0 mm 0.00 in0.0 mm
08:45 AM 79.7°F26.5°C 69.1°F20.6°C 70% 7.6 mph SE12.2 kmh SE 13.0 mph20.9 kmh 29.75 in1007.5 mb 0.00 in0.0 mm 0.00 in0.0 mm 0.00 in0.0 mm
08:50 AM 80.4°F26.9°C 69.4°F20.8°C 69% 7.6 mph SE12.2 kmh SE 11.4 mph18.3 kmh 29.75 in1007.5 mb 0.00 in0.0 mm 0.00 in0.0 mm 0.00 in0.0 mm
08:55 AM 80.8°F27.1°C 69.7°F20.9°C 69% 9.2 mph SE14.8 kmh SE 12.1 mph19.5 kmh 29.76 in1007.8 mb 0.00 in0.0 mm 0.00 in0.0 mm 0.00 in0.0 mm
09:00 AM 81.0°F27.2°C 69.5°F20.8°C 68% 8.3 mph SE13.4 kmh SE 12.1 mph19.5 kmh 29.75 in1007.5 mb 0.00 in0.0 mm 0.00 in0.0 mm 0.00 in0.0 mm
09:05 AM 81.3°F27.4°C 69.8°F21.0°C 68% 5.4 mph SE8.7 kmh SE 12.1 mph19.5 kmh 29.75 in1007.5 mb 0.00 in0.0 mm 0.00 in0.0 mm 0.00 in0.0 mm
09:10 AM 81.5°F27.5°C 70.0°F21.1°C 68% 7.6 mph SE12.2 kmh SE 12.1 mph19.5 kmh 29.75 in1007.5 mb 0.00 in0.0 mm 0.00 in0.0 mm 0.00 in0.0 mm
09:15 AM 81.9°F27.7°C 70.3°F21.3°C 68% 8.3 mph SE13.4 kmh SE 13.0 mph20.9 kmh 29.76 in1007.8 mb 0.00 in0.0 mm 0.00 in0.0 mm 0.00 in0.0 mm
09:20 AM 82.2°F27.9°C 70.2°F21.2°C 67% 6.9 mph SE11.1 kmh SE 13.0 mph20.9 kmh 29.76 in1007.8 mb 0.00 in0.0 mm 0.00 in0.0 mm 0.00 in0.0 mm
09:25 AM 82.4°F28.0°C 70.4°F21.3°C 67% 5.4 mph SE8.7 kmh SE 12.1 mph19.5 kmh 29.75 in1007.5 mb 0.00 in0.0 mm 0.00 in0.0 mm 0.00 in0.0 mm
09:30 AM 82.6°F28.1°C 70.6°F21.4°C 67% 9.2 mph SE14.8 kmh SE 14.5 mph23.3 kmh 29.75 in1007.5 mb 0.00 in0.0 mm 0.00 in0.0 mm 0.00 in0.0 mm
09:35 AM 82.8°F28.2°C 70.7°F21.5°C 67% 8.3 mph SE13.4 kmh SE 14.5 mph23.3 kmh 29.75 in1007.5 mb 0.00 in0.0 mm 0.00 in0.0 mm 0.00 in0.0 mm
09:40 AM 83.1°F28.4°C 71.1°F21.7°C 67% 9.2 mph SE14.8 kmh SE 14.5 mph23.3 kmh 29.75 in1007.5 mb 0.00 in0.0 mm 0.00 in0.0 mm 0.00 in0.0 mm
09:45 AM 83.3°F28.5°C 71.3°F21.8°C 67% 9.8 mph SE15.8 kmh SE 15.2 mph24.5 kmh 29.75 in1007.5 mb 0.00 in0.0 mm 0.00 in0.0 mm 0.00 in0.0 mm
09:50 AM 83.7°F28.7°C 71.2°F21.8°C 66% 8.3 mph SE13.4 kmh SE 15.9 mph25.6 kmh 29.75 in1007.5 mb 0.00 in0.0 mm 0.00 in0.0 mm 0.00 in0.0 mm
09:55 AM 84.2°F29.0°C 71.7°F22.1°C 66% 9.2 mph SE14.8 kmh SE 15.9 mph25.6 kmh 29.75 in1007.5 mb 0.00 in0.0 mm 0.00 in0.0 mm 0.00 in0.0 mm
10:00 AM 84.6°F29.2°C 72.0°F22.2°C 66% 7.6 mph SE12.2 kmh SE 13.6 mph21.9 kmh 29.75 in1007.5 mb 0.00 in0.0 mm 0.00 in0.0 mm 0.00 in0.0 mm
10:05 AM 84.7°F29.3°C 71.7°F22.1°C 65% 9.2 mph SSE14.8 kmh SSE 14.5 mph23.3 kmh 29.75 in1007.5 mb 0.00 in0.0 mm 0.00 in0.0 mm 0.00 in0.0 mm
10:10 AM 84.9°F29.4°C 71.9°F22.2°C 65% 10.7 mph S17.2 kmh S 14.5 mph23.3 kmh 29.75 in1007.5 mb 0.00 in0.0 mm 0.00 in0.0 mm 0.00 in0.0 mm
10:15 AM 84.9°F29.4°C 71.9°F22.2°C 65% 10.7 mph S17.2 kmh S 15.9 mph25.6 kmh 29.75 in1007.5 mb 0.00 in0.0 mm 0.00 in0.0 mm 0.00 in0.0 mm
10:20 AM 84.9°F29.4°C 71.4°F21.9°C 64% 11.4 mph SSE18.3 kmh SSE 17.4 mph28.0 kmh 29.75 in1007.5 mb 0.00 in0.0 mm 0.00 in0.0 mm 0.00 in0.0 mm
10:25 AM 84.9°F29.4°C 71.4°F21.9°C 64% 10.7 mph SSE17.2 kmh SSE 17.4 mph28.0 kmh 29.75 in1007.5 mb 0.00 in0.0 mm 0.00 in0.0 mm 0.00 in0.0 mm
10:30 AM 85.1°F29.5°C 71.6°F22.0°C 64% 9.2 mph SE14.8 kmh SE 16.8 mph27.0 kmh 29.75 in1007.5 mb 0.00 in0.0 mm 0.00 in0.0 mm 0.00 in0.0 mm
10:35 AM 85.6°F29.8°C 71.7°F22.1°C 63% 9.2 mph SE14.8 kmh SE 15.9 mph25.6 kmh 29.75 in1007.5 mb 0.00 in0.0 mm 0.00 in0.0 mm 0.00 in0.0 mm
10:40 AM 85.8°F29.9°C 71.4°F21.9°C 62% 10.7 mph SSE17.2 kmh SSE 15.9 mph25.6 kmh 29.75 in1007.5 mb 0.00 in0.0 mm 0.00 in0.0 mm 0.00 in0.0 mm
10:45 AM 86.0°F30.0°C 71.5°F21.9°C 62% 6.9 mph SSE11.1 kmh SSE 15.9 mph25.6 kmh 29.76 in1007.8 mb 0.00 in0.0 mm 0.00 in0.0 mm 0.00 in0.0 mm
10:50 AM 86.2°F30.1°C 71.7°F22.1°C 62% 9.8 mph SE15.8 kmh SE 15.2 mph24.5 kmh 29.76 in1007.8 mb 0.00 in0.0 mm 0.00 in0.0 mm 0.00 in0.0 mm
10:55 AM 86.5°F30.3°C 71.6°F22.0°C 61% 6.9 mph SE11.1 kmh SE 15.2 mph24.5 kmh 29.76 in1007.8 mb 0.00 in0.0 mm 0.00 in0.0 mm 0.00 in0.0 mm
11:00 AM 87.1°F30.6°C 71.6°F22.0°C 60% 6.9 mph SE11.1 kmh SE 14.5 mph23.3 kmh 29.75 in1007.5 mb 0.00 in0.0 mm 0.00 in0.0 mm 0.00 in0.0 mm
11:05 AM 87.4°F30.8°C 71.4°F21.9°C 59% 8.3 mph SSE13.4 kmh SSE 13.6 mph21.9 kmh 29.75 in1007.5 mb 0.00 in0.0 mm 0.00 in0.0 mm 0.00 in0.0 mm
11:10 AM 87.4°F30.8°C 71.4°F21.9°C 59% 8.3 mph SE13.4 kmh SE 14.5 mph23.3 kmh 29.75 in1007.5 mb 0.00 in0.0 mm 0.00 in0.0 mm 0.00 in0.0 mm
11:15 AM 87.4°F30.8°C 71.4°F21.9°C 59% 8.3 mph SE13.4 kmh SE 15.9 mph25.6 kmh 29.75 in1007.5 mb 0.00 in0.0 mm 0.00 in0.0 mm 0.00 in0.0 mm
11:20 AM 87.3°F30.7°C 70.7°F21.5°C 58% 8.3 mph SE13.4 kmh SE 15.9 mph25.6 kmh 29.75 in1007.5 mb 0.00 in0.0 mm 0.00 in0.0 mm 0.00 in0.0 mm
11:25 AM 87.1°F30.6°C 70.6°F21.4°C 58% 6.9 mph SSE11.1 kmh SSE 18.3 mph29.5 kmh 29.75 in1007.5 mb 0.00 in0.0 mm 0.00 in0.0 mm 0.00 in0.0 mm
11:30 AM 87.3°F30.7°C 70.7°F21.5°C 58% 9.8 mph SE15.8 kmh SE 18.3 mph29.5 kmh 29.75 in1007.5 mb 0.00 in0.0 mm 0.00 in0.0 mm 0.00 in0.0 mm
11:35 AM 87.3°F30.7°C 70.7°F21.5°C 58% 9.2 mph SE14.8 kmh SE 15.2 mph24.5 kmh 29.75 in1007.5 mb 0.00 in0.0 mm 0.00 in0.0 mm 0.00 in0.0 mm
11:40 AM 87.4°F30.8°C 70.9°F21.6°C 58% 6.9 mph SE11.1 kmh SE 15.2 mph24.5 kmh 29.75 in1007.5 mb 0.00 in0.0 mm 0.00 in0.0 mm 0.00 in0.0 mm
11:45 AM 87.8°F31.0°C 70.7°F21.5°C 57% 9.8 mph SSE15.8 kmh SSE 14.5 mph23.3 kmh 29.75 in1007.5 mb 0.00 in0.0 mm 0.00 in0.0 mm 0.00 in0.0 mm
11:50 AM 87.8°F31.0°C 70.7°F21.5°C 57% 12.1 mph SSE19.5 kmh SSE 16.8 mph27.0 kmh 29.75 in1007.5 mb 0.00 in0.0 mm 0.00 in0.0 mm 0.00 in0.0 mm
11:55 AM 87.8°F31.0°C 70.7°F21.5°C 57% 6.9 mph SSE11.1 kmh SSE 16.8 mph27.0 kmh 29.75 in1007.5 mb 0.00 in0.0 mm 0.00 in0.0 mm 0.00 in0.0 mm
12:00 PM 88.0°F31.1°C 70.9°F21.6°C 57% 9.8 mph SSE15.8 kmh SSE 16.8 mph27.0 kmh 29.75 in1007.5 mb 0.00 in0.0 mm 0.00 in0.0 mm 0.00 in0.0 mm
12:05 PM 88.2°F31.2°C 71.1°F21.7°C 57% 7.6 mph SE12.2 kmh SE 15.2 mph24.5 kmh 29.75 in1007.5 mb 0.00 in0.0 mm 0.00 in0.0 mm 0.00 in0.0 mm
12:10 PM 88.9°F31.6°C 71.2°F21.8°C 56% 5.4 mph SE8.7 kmh SE 14.5 mph23.3 kmh 29.75 in1007.5 mb 0.00 in0.0 mm 0.00 in0.0 mm 0.00 in0.0 mm
12:15 PM 89.2°F31.8°C 71.0°F21.7°C 55% 7.6 mph SE12.2 kmh SE 15.9 mph25.6 kmh 29.75 in1007.5 mb 0.00 in0.0 mm 0.00 in0.0 mm 0.00 in0.0 mm
12:20 PM 89.8°F32.1°C 71.5°F21.9°C 55% 7.6 mph SE12.2 kmh SE 15.9 mph25.6 kmh 29.75 in1007.5 mb 0.00 in0.0 mm 0.00 in0.0 mm 0.00 in0.0 mm
12:25 PM 90.1°F32.3°C 71.9°F22.2°C 55% 6.9 mph SSE11.1 kmh SSE 11.4 mph18.3 kmh 29.75 in1007.5 mb 0.00 in0.0 mm 0.00 in0.0 mm 0.00 in0.0 mm
12:30 PM 91.0°F32.8°C 72.2°F22.3°C 54% 6.0 mph SSE9.7 kmh SSE 10.7 mph17.2 kmh 29.75 in1007.5 mb 0.00 in0.0 mm 0.00 in0.0 mm 0.00 in0.0 mm
12:35 PM 91.0°F32.8°C 71.6°F22.0°C 53% 5.4 mph SSE8.7 kmh SSE 15.9 mph25.6 kmh 29.75 in1007.5 mb 0.00 in0.0 mm 0.00 in0.0 mm 0.00 in0.0 mm
12:40 PM 91.4°F33.0°C 71.9°F22.2°C 53% 5.4 mph SSE8.7 kmh SSE 15.9 mph25.6 kmh 29.76 in1007.8 mb 0.00 in0.0 mm 0.00 in0.0 mm 0.00 in0.0 mm
12:45 PM 92.3°F33.5°C 72.8°F22.7°C 53% 7.6 mph SSE12.2 kmh SSE 10.7 mph17.2 kmh 29.75 in1007.5 mb 0.00 in0.0 mm 0.00 in0.0 mm 0.00 in0.0 mm
12:50 PM 93.0°F33.9°C 72.9°F22.7°C 52% 7.6 mph SSE12.2 kmh SSE 14.5 mph23.3 kmh 29.76 in1007.8 mb 0.00 in0.0 mm 0.00 in0.0 mm 0.00 in0.0 mm
12:55 PM 93.9°F34.4°C 73.1°F22.8°C 51% 3.8 mph SSE6.1 kmh SSE 14.5 mph23.3 kmh 29.75 in1007.5 mb 0.00 in0.0 mm 0.00 in0.0 mm 0.00 in0.0 mm
01:00 PM 94.6°F34.8°C 73.2°F22.9°C 50% 8.3 mph SE13.4 kmh SE 12.1 mph19.5 kmh 29.75 in1007.5 mb 0.00 in0.0 mm 0.00 in0.0 mm 0.00 in0.0 mm
01:05 PM 95.5°F35.3°C 73.4°F23.0°C 49% 9.8 mph SE15.8 kmh SE 13.0 mph20.9 kmh 29.75 in1007.5 mb 0.00 in0.0 mm 0.00 in0.0 mm 0.00 in0.0 mm
01:10 PM 95.9°F35.5°C 73.1°F22.8°C 48% 3.8 mph E6.1 kmh E 13.6 mph21.9 kmh 29.75 in1007.5 mb 0.00 in0.0 mm 0.00 in0.0 mm 0.00 in0.0 mm
01:15 PM 95.0°F35.0°C 72.3°F22.4°C 48% 7.6 mph ESE12.2 kmh ESE 13.6 mph21.9 kmh 29.76 in1007.8 mb 0.00 in0.0 mm 0.00 in0.0 mm 0.00 in0.0 mm
01:20 PM 94.8°F34.9°C 72.8°F22.7°C 49% 6.9 mph SE11.1 kmh SE 13.6 mph21.9 kmh 29.76 in1007.8 mb 0.00 in0.0 mm 0.00 in0.0 mm 0.00 in0.0 mm
01:25 PM 96.3°F35.7°C 73.5°F23.1°C 48% 12.1 mph SE19.5 kmh SE 15.9 mph25.6 kmh 29.76 in1007.8 mb 0.00 in0.0 mm 0.00 in0.0 mm 0.00 in0.0 mm
01:30 PM 97.0°F36.1°C 73.5°F23.1°C 47% 6.0 mph ESE9.7 kmh ESE 15.9 mph25.6 kmh 29.76 in1007.8 mb 0.00 in0.0 mm 0.00 in0.0 mm 0.00 in0.0 mm
01:35 PM 96.6°F35.9°C 73.2°F22.9°C 47% 3.8 mph ESE6.1 kmh ESE 15.9 mph25.6 kmh 29.76 in1007.8 mb 0.00 in0.0 mm 0.00 in0.0 mm 0.00 in0.0 mm
01:40 PM 96.3°F35.7°C 72.8°F22.7°C 47% 5.4 mph SE8.7 kmh SE 12.1 mph19.5 kmh 29.75 in1007.5 mb 0.00 in0.0 mm 0.00 in0.0 mm 0.00 in0.0 mm
01:45 PM 96.3°F35.7°C 72.8°F22.7°C 47% 8.3 mph SE13.4 kmh SE 11.4 mph18.3 kmh 29.75 in1007.5 mb 0.00 in0.0 mm 0.00 in0.0 mm 0.00 in0.0 mm
01:50 PM 96.3°F35.7°C 72.8°F22.7°C 47% 6.9 mph SE11.1 kmh SE 11.4 mph18.3 kmh 29.75 in1007.5 mb 0.00 in0.0 mm 0.00 in0.0 mm 0.00 in0.0 mm
01:55 PM 96.1°F35.6°C 72.7°F22.6°C 47% 5.4 mph SE8.7 kmh SE 11.4 mph18.3 kmh 29.75 in1007.5 mb 0.00 in0.0 mm 0.00 in0.0 mm 0.00 in0.0 mm
02:00 PM 95.4°F35.2°C 72.0°F22.2°C 47% 9.2 mph SE14.8 kmh SE 12.1 mph19.5 kmh 29.75 in1007.5 mb 0.00 in0.0 mm 0.00 in0.0 mm 0.00 in0.0 mm
02:05 PM 95.0°F35.0°C 72.3°F22.4°C 48% 6.0 mph SSE9.7 kmh SSE 12.1 mph19.5 kmh 29.75 in1007.5 mb 0.00 in0.0 mm 0.00 in0.0 mm 0.00 in0.0 mm
02:10 PM 95.2°F35.1°C 72.5°F22.5°C 48% 6.9 mph SE11.1 kmh SE 11.4 mph18.3 kmh 29.74 in1007.1 mb 0.00 in0.0 mm 0.00 in0.0 mm 0.00 in0.0 mm
02:15 PM 95.5°F35.3°C 72.2°F22.3°C 47% 6.9 mph SE11.1 kmh SE 11.4 mph18.3 kmh 29.75 in1007.5 mb 0.00 in0.0 mm 0.00 in0.0 mm 0.00 in0.0 mm
02:20 PM 96.4°F35.8°C 73.0°F22.8°C 47% 9.2 mph ESE14.8 kmh ESE 12.1 mph19.5 kmh 29.74 in1007.1 mb 0.00 in0.0 mm 0.00 in0.0 mm 0.00 in0.0 mm
02:25 PM 97.7°F36.5°C 72.9°F22.7°C 45% 6.0 mph ESE9.7 kmh ESE 13.6 mph21.9 kmh 29.74 in1007.1 mb 0.00 in0.0 mm 0.00 in0.0 mm 0.00 in0.0 mm
02:30 PM 99.0°F37.2°C 74.0°F23.3°C 45% 7.6 mph E12.2 kmh E 13.6 mph21.9 kmh 29.75 in1007.5 mb 0.00 in0.0 mm 0.00 in0.0 mm 0.00 in0.0 mm
02:35 PM 100.4°F38.0°C 73.9°F23.3°C 43% 4.5 mph SE7.2 kmh SE 11.4 mph18.3 kmh 29.74 in1007.1 mb 0.00 in0.0 mm 0.00 in0.0 mm 0.00 in0.0 mm
02:40 PM 99.7°F37.6°C 73.3°F22.9°C 43% 5.4 mph SE8.7 kmh SE 11.4 mph18.3 kmh 29.74 in1007.1 mb 0.00 in0.0 mm 0.00 in0.0 mm 0.00 in0.0 mm
02:45 PM 99.1°F37.3°C 72.8°F22.7°C 43% 7.6 mph SE12.2 kmh SE 13.6 mph21.9 kmh 29.74 in1007.1 mb 0.00 in0.0 mm 0.00 in0.0 mm 0.00 in0.0 mm
02:50 PM 99.1°F37.3°C 73.5°F23.1°C 44% 7.6 mph SE12.2 kmh SE 13.6 mph21.9 kmh 29.73 in1006.8 mb 0.00 in0.0 mm 0.00 in0.0 mm 0.00 in0.0 mm
02:55 PM 98.6°F37.0°C 73.0°F22.8°C 44% 2.2 mph SSE3.5 kmh SSE 10.7 mph17.2 kmh 29.74 in1007.1 mb 0.00 in0.0 mm 0.00 in0.0 mm 0.00 in0.0 mm
03:00 PM 98.8°F37.1°C 73.2°F22.9°C 44% 11.4 mph SE18.3 kmh SE 15.2 mph24.5 kmh 29.74 in1007.1 mb 0.00 in0.0 mm 0.00 in0.0 mm 0.00 in0.0 mm
03:05 PM 97.9°F36.6°C 73.0°F22.8°C 45% 4.5 mph SE7.2 kmh SE 15.2 mph24.5 kmh 29.73 in1006.8 mb 0.00 in0.0 mm 0.00 in0.0 mm 0.00 in0.0 mm
03:10 PM 98.2°F36.8°C 73.3°F22.9°C 45% 6.0 mph ESE9.7 kmh ESE 11.4 mph18.3 kmh 29.73 in1006.8 mb 0.00 in0.0 mm 0.00 in0.0 mm 0.00 in0.0 mm
03:15 PM 98.4°F36.9°C 73.5°F23.1°C 45% 6.0 mph SE9.7 kmh SE 11.4 mph18.3 kmh 29.73 in1006.8 mb 0.00 in0.0 mm 0.00 in0.0 mm 0.00 in0.0 mm
03:20 PM 97.9°F36.6°C 73.0°F22.8°C 45% 6.0 mph SE9.7 kmh SE 13.6 mph21.9 kmh 29.72 in1006.4 mb 0.00 in0.0 mm 0.00 in0.0 mm 0.00 in0.0 mm
03:25 PM 97.2°F36.2°C 72.4°F22.4°C 45% 7.6 mph SE12.2 kmh SE 13.6 mph21.9 kmh 29.71 in1006.1 mb 0.00 in0.0 mm 0.00 in0.0 mm 0.00 in0.0 mm
03:30 PM 96.6°F35.9°C 72.5°F22.5°C 46% 6.0 mph SE9.7 kmh SE 13.0 mph20.9 kmh 29.71 in1006.1 mb 0.00 in0.0 mm 0.00 in0.0 mm 0.00 in0.0 mm
03:35 PM 96.6°F35.9°C 72.5°F22.5°C 46% 5.4 mph ESE8.7 kmh ESE 11.4 mph18.3 kmh 29.70 in1005.8 mb 0.00 in0.0 mm 0.00 in0.0 mm 0.00 in0.0 mm
03:40 PM 96.8°F36.0°C 72.7°F22.6°C 46% 7.6 mph SE12.2 kmh SE 13.0 mph20.9 kmh 29.70 in1005.8 mb 0.00 in0.0 mm 0.00 in0.0 mm 0.00 in0.0 mm
03:45 PM 97.0°F36.1°C 72.9°F22.7°C 46% 6.9 mph SE11.1 kmh SE 13.0 mph20.9 kmh 29.70 in1005.8 mb 0.00 in0.0 mm 0.00 in0.0 mm 0.00 in0.0 mm
03:50 PM 97.5°F36.4°C 72.7°F22.6°C 45% 8.3 mph SE13.4 kmh SE 14.5 mph23.3 kmh 29.71 in1006.1 mb 0.00 in0.0 mm 0.00 in0.0 mm 0.00 in0.0 mm
03:55 PM 98.1°F36.7°C 73.2°F22.9°C 45% 8.3 mph ESE13.4 kmh ESE 14.5 mph23.3 kmh 29.71 in1006.1 mb 0.00 in0.0 mm 0.00 in0.0 mm 0.00 in0.0 mm
04:00 PM 98.6°F37.0°C 73.0°F22.8°C 44% 6.9 mph ESE11.1 kmh ESE 13.6 mph21.9 kmh 29.69 in1005.4 mb 0.00 in0.0 mm 0.00 in0.0 mm 0.00 in0.0 mm
04:05 PM 98.6°F37.0°C 73.0°F22.8°C 44% 6.9 mph SE11.1 kmh SE 12.1 mph19.5 kmh 29.70 in1005.8 mb 0.00 in0.0 mm 0.00 in0.0 mm 0.00 in0.0 mm
04:10 PM 98.6°F37.0°C 73.0°F22.8°C 44% 6.9 mph SE11.1 kmh SE 14.5 mph23.3 kmh 29.70 in1005.8 mb 0.00 in0.0 mm 0.00 in0.0 mm 0.00 in0.0 mm
04:15 PM 98.2°F36.8°C 72.7°F22.6°C 44% 8.3 mph SE13.4 kmh SE 14.5 mph23.3 kmh 29.70 in1005.8 mb 0.00 in0.0 mm 0.00 in0.0 mm 0.00 in0.0 mm
04:20 PM 97.9°F36.6°C 73.0°F22.8°C 45% 5.4 mph ESE8.7 kmh ESE 13.6 mph21.9 kmh 29.70 in1005.8 mb 0.00 in0.0 mm 0.00 in0.0 mm 0.00 in0.0 mm
04:25 PM 97.7°F36.5°C 72.9°F22.7°C 45% 9.8 mph SE15.8 kmh SE 13.6 mph21.9 kmh 29.70 in1005.8 mb 0.00 in0.0 mm 0.00 in0.0 mm 0.00 in0.0 mm
04:30 PM 97.2°F36.2°C 72.4°F22.4°C 45% 4.5 mph SE7.2 kmh SE 12.1 mph19.5 kmh 29.71 in1006.1 mb 0.00 in0.0 mm 0.00 in0.0 mm 0.00 in0.0 mm
04:35 PM 96.8°F36.0°C 72.0°F22.2°C 45% 4.5 mph ESE7.2 kmh ESE 12.1 mph19.5 kmh 29.71 in1006.1 mb 0.00 in0.0 mm 0.00 in0.0 mm 0.00 in0.0 mm
04:40 PM 95.9°F35.5°C 71.9°F22.2°C 46% 7.6 mph SE12.2 kmh SE 12.1 mph19.5 kmh 29.70 in1005.8 mb 0.00 in0.0 mm 0.00 in0.0 mm 0.00 in0.0 mm
04:45 PM 95.9°F35.5°C 72.5°F22.5°C 47% 6.0 mph SE9.7 kmh SE 11.4 mph18.3 kmh 29.70 in1005.8 mb 0.00 in0.0 mm 0.00 in0.0 mm 0.00 in0.0 mm
04:50 PM 96.1°F35.6°C 72.7°F22.6°C 47% 6.0 mph SE9.7 kmh SE 12.1 mph19.5 kmh 29.70 in1005.8 mb 0.00 in0.0 mm 0.00 in0.0 mm 0.00 in0.0 mm
04:55 PM 95.7°F35.4°C 72.3°F22.4°C 47% 5.4 mph SE8.7 kmh SE 12.1 mph19.5 kmh 29.70 in1005.8 mb 0.00 in0.0 mm 0.00 in0.0 mm 0.00 in0.0 mm
05:00 PM 95.2°F35.1°C 71.2°F21.8°C 46% 6.9 mph SE11.1 kmh SE 10.7 mph17.2 kmh 29.70 in1005.8 mb 0.00 in0.0 mm 0.00 in0.0 mm 0.00 in0.0 mm
05:05 PM 94.3°F34.6°C 71.0°F21.7°C 47% 9.8 mph SE15.8 kmh SE 13.6 mph21.9 kmh 29.69 in1005.4 mb 0.00 in0.0 mm 0.00 in0.0 mm 0.00 in0.0 mm
05:10 PM 94.3°F34.6°C 71.7°F22.1°C 48% 6.9 mph SE11.1 kmh SE 15.2 mph24.5 kmh 29.70 in1005.8 mb 0.00 in0.0 mm 0.00 in0.0 mm 0.00 in0.0 mm
05:15 PM 94.6°F34.8°C 72.0°F22.2°C 48% 8.3 mph SE13.4 kmh SE 15.2 mph24.5 kmh 29.69 in1005.4 mb 0.00 in0.0 mm 0.00 in0.0 mm 0.00 in0.0 mm
05:20 PM 94.5°F34.7°C 71.8°F22.1°C 48% 6.9 mph SE11.1 kmh SE 12.1 mph19.5 kmh 29.69 in1005.4 mb 0.00 in0.0 mm 0.00 in0.0 mm 0.00 in0.0 mm
05:25 PM 94.1°F34.5°C 71.5°F21.9°C 48% 8.3 mph SE13.4 kmh SE 12.1 mph19.5 kmh 29.69 in1005.4 mb 0.00 in0.0 mm 0.00 in0.0 mm 0.00 in0.0 mm
05:30 PM 94.5°F34.7°C 71.8°F22.1°C 48% 6.9 mph SE11.1 kmh SE 10.7 mph17.2 kmh 29.69 in1005.4 mb 0.00 in0.0 mm 0.00 in0.0 mm 0.00 in0.0 mm
05:35 PM 94.3°F34.6°C 71.7°F22.1°C 48% 6.9 mph SE11.1 kmh SE 10.7 mph17.2 kmh 29.70 in1005.8 mb 0.00 in0.0 mm 0.00 in0.0 mm 0.00 in0.0 mm
05:40 PM 94.3°F34.6°C 71.7°F22.1°C 48% 3.8 mph SE6.1 kmh SE 10.7 mph17.2 kmh 29.70 in1005.8 mb 0.00 in0.0 mm 0.00 in0.0 mm 0.00 in0.0 mm
05:45 PM 94.5°F34.7°C 72.4°F22.4°C 49% 6.0 mph ESE9.7 kmh ESE 10.7 mph17.2 kmh 29.70 in1005.8 mb 0.00 in0.0 mm 0.00 in0.0 mm 0.00 in0.0 mm
05:50 PM 94.5°F34.7°C 71.8°F22.1°C 48% 5.4 mph SE8.7 kmh SE 10.7 mph17.2 kmh 29.70 in1005.8 mb 0.00 in0.0 mm 0.00 in0.0 mm 0.00 in0.0 mm
05:55 PM 94.5°F34.7°C 72.4°F22.4°C 49% 6.0 mph SE9.7 kmh SE 9.2 mph14.8 kmh 29.69 in1005.4 mb 0.00 in0.0 mm 0.00 in0.0 mm 0.00 in0.0 mm
06:00 PM 94.5°F34.7°C 72.4°F22.4°C 49% 5.4 mph SE8.7 kmh SE 9.2 mph14.8 kmh 29.70 in1005.8 mb 0.00 in0.0 mm 0.00 in0.0 mm 0.00 in0.0 mm
06:05 PM 93.7°F34.3°C 71.8°F22.1°C 49% 7.6 mph SE12.2 kmh SE 12.1 mph19.5 kmh 29.69 in1005.4 mb 0.00 in0.0 mm 0.00 in0.0 mm 0.00 in0.0 mm
06:10 PM 93.4°F34.1°C 72.0°F22.2°C 50% 8.3 mph SE13.4 kmh SE 12.1 mph19.5 kmh 29.69 in1005.4 mb 0.00 in0.0 mm 0.00 in0.0 mm 0.00 in0.0 mm
06:15 PM 92.8°F33.8°C 71.5°F21.9°C 50% 6.0 mph SE9.7 kmh SE 12.1 mph19.5 kmh 29.70 in1005.8 mb 0.00 in0.0 mm 0.00 in0.0 mm 0.00 in0.0 mm
06:20 PM 91.9°F33.3°C 70.7°F21.5°C 50% 7.6 mph SE12.2 kmh SE 12.1 mph19.5 kmh 29.70 in1005.8 mb 0.00 in0.0 mm 0.00 in0.0 mm 0.00 in0.0 mm
06:25 PM 91.4°F33.0°C 70.8°F21.6°C 51% 8.3 mph SE13.4 kmh SE 11.4 mph18.3 kmh 29.69 in1005.4 mb 0.00 in0.0 mm 0.00 in0.0 mm 0.00 in0.0 mm
06:30 PM 90.9°F32.7°C 70.3°F21.3°C 51% 6.9 mph SE11.1 kmh SE 11.4 mph18.3 kmh 29.69 in1005.4 mb 0.00 in0.0 mm 0.00 in0.0 mm 0.00 in0.0 mm
06:35 PM 90.3°F32.4°C 70.4°F21.3°C 52% 6.0 mph SE9.7 kmh SE 11.4 mph18.3 kmh 29.69 in1005.4 mb 0.00 in0.0 mm 0.00 in0.0 mm 0.00 in0.0 mm
06:40 PM 90.1°F32.3°C 70.2°F21.2°C 52% 5.4 mph SE8.7 kmh SE 14.5 mph23.3 kmh 29.69 in1005.4 mb 0.00 in0.0 mm 0.00 in0.0 mm 0.00 in0.0 mm
06:45 PM 89.8°F32.1°C 69.9°F21.1°C 52% 7.6 mph SE12.2 kmh SE 14.5 mph23.3 kmh 29.69 in1005.4 mb 0.00 in0.0 mm 0.00 in0.0 mm 0.00 in0.0 mm
06:50 PM 89.4°F31.9°C 70.1°F21.2°C 53% 8.3 mph SE13.4 kmh SE 12.1 mph19.5 kmh 29.69 in1005.4 mb 0.00 in0.0 mm 0.00 in0.0 mm 0.00 in0.0 mm
06:55 PM 89.1°F31.7°C 69.8°F21.0°C 53% 7.6 mph SE12.2 kmh SE 12.1 mph19.5 kmh 29.70 in1005.8 mb 0.00 in0.0 mm 0.00 in0.0 mm 0.00 in0.0 mm
07:00 PM 88.5°F31.4°C 69.8°F21.0°C 54% 6.0 mph SE9.7 kmh SE 11.4 mph18.3 kmh 29.70 in1005.8 mb 0.00 in0.0 mm 0.00 in0.0 mm 0.00 in0.0 mm
07:05 PM 88.2°F31.2°C 69.5°F20.8°C 54% 6.0 mph SE9.7 kmh SE 11.4 mph18.3 kmh 29.69 in1005.4 mb 0.00 in0.0 mm 0.00 in0.0 mm 0.00 in0.0 mm
07:10 PM 88.0°F31.1°C 69.3°F20.7°C 54% 6.0 mph SE9.7 kmh SE 11.4 mph18.3 kmh 29.70 in1005.8 mb 0.00 in0.0 mm 0.00 in0.0 mm 0.00 in0.0 mm
07:15 PM 87.6°F30.9°C 69.5°F20.8°C 55% 4.5 mph SE7.2 kmh SE 10.7 mph17.2 kmh 29.70 in1005.8 mb 0.00 in0.0 mm 0.00 in0.0 mm 0.00 in0.0 mm
07:20 PM 87.4°F30.8°C 69.4°F20.8°C 55% 4.5 mph SSE7.2 kmh SSE 10.7 mph17.2 kmh 29.70 in1005.8 mb 0.00 in0.0 mm 0.00 in0.0 mm 0.00 in0.0 mm
07:25 PM 87.1°F30.6°C 69.0°F20.6°C 55% 2.2 mph SSE3.5 kmh SSE 8.3 mph13.4 kmh 29.70 in1005.8 mb 0.00 in0.0 mm 0.00 in0.0 mm 0.00 in0.0 mm
07:30 PM 86.7°F30.4°C 69.2°F20.7°C 56% 6.9 mph SE11.1 kmh SE 9.2 mph14.8 kmh 29.70 in1005.8 mb 0.00 in0.0 mm 0.00 in0.0 mm 0.00 in0.0 mm
07:35 PM 86.5°F30.3°C 69.0°F20.6°C 56% 6.0 mph SSE9.7 kmh SSE 9.8 mph15.8 kmh 29.70 in1005.8 mb 0.00 in0.0 mm 0.00 in0.0 mm 0.00 in0.0 mm
07:40 PM 86.2°F30.1°C 68.7°F20.4°C 56% 5.4 mph SSE8.7 kmh SSE 9.8 mph15.8 kmh 29.70 in1005.8 mb 0.00 in0.0 mm 0.00 in0.0 mm 0.00 in0.0 mm
07:45 PM 86.0°F30.0°C 69.1°F20.6°C 57% 3.8 mph SE6.1 kmh SE 7.6 mph12.2 kmh 29.71 in1006.1 mb 0.00 in0.0 mm 0.00 in0.0 mm 0.00 in0.0 mm
07:50 PM 85.8°F29.9°C 68.9°F20.5°C 57% 4.5 mph SSE7.2 kmh SSE 7.6 mph12.2 kmh 29.70 in1005.8 mb 0.00 in0.0 mm 0.00 in0.0 mm 0.00 in0.0 mm
07:55 PM 85.3°F29.6°C 68.4°F20.2°C 57% 4.5 mph SSE7.2 kmh SSE 7.6 mph12.2 kmh 29.71 in1006.1 mb 0.00 in0.0 mm 0.00 in0.0 mm 0.00 in0.0 mm
08:00 PM 84.9°F29.4°C 68.6°F20.3°C 58% 3.1 mph S5.0 kmh S 7.6 mph12.2 kmh 29.70 in1005.8 mb 0.00 in0.0 mm 0.00 in0.0 mm 0.00 in0.0 mm
08:05 PM 84.7°F29.3°C 68.4°F20.2°C 58% 3.1 mph S5.0 kmh S 7.6 mph12.2 kmh 29.72 in1006.4 mb 0.00 in0.0 mm 0.00 in0.0 mm 0.00 in0.0 mm
08:10 PM 84.4°F29.1°C 68.5°F20.3°C 59% 2.2 mph SSW3.5 kmh SSW 5.4 mph8.7 kmh 29.71 in1006.1 mb 0.00 in0.0 mm 0.00 in0.0 mm 0.00 in0.0 mm
08:15 PM 83.7°F28.7°C 67.9°F19.9°C 59% 2.2 mph SW3.5 kmh SW 4.5 mph7.2 kmh 29.71 in1006.1 mb 0.00 in0.0 mm 0.00 in0.0 mm 0.00 in0.0 mm
08:20 PM 83.3°F28.5°C 68.0°F20.0°C 60% 2.2 mph SW3.5 kmh SW 3.8 mph6.1 kmh 29.71 in1006.1 mb 0.00 in0.0 mm 0.00 in0.0 mm 0.00 in0.0 mm
08:25 PM 83.1°F28.4°C 67.8°F19.9°C 60% 3.1 mph SW5.0 kmh SW 4.5 mph7.2 kmh 29.71 in1006.1 mb 0.00 in0.0 mm 0.00 in0.0 mm 0.00 in0.0 mm
08:30 PM 82.4°F28.0°C 67.7°F19.8°C 61% 0.7 mph SSW1.1 kmh SSW 4.5 mph7.2 kmh 29.71 in1006.1 mb 0.00 in0.0 mm 0.00 in0.0 mm 0.00 in0.0 mm
08:35 PM 82.2°F27.9°C 67.5°F19.7°C 61% Calm Calm 4.5 mph7.2 kmh 29.72 in1006.4 mb 0.00 in0.0 mm 0.00 in0.0 mm 0.00 in0.0 mm
08:40 PM 81.5°F27.5°C 66.8°F19.3°C 61% 1.6 mph S2.6 kmh S 2.2 mph3.5 kmh 29.72 in1006.4 mb 0.00 in0.0 mm 0.00 in0.0 mm 0.00 in0.0 mm
08:45 PM 81.7°F27.6°C 67.4°F19.7°C 62% 1.6 mph SE2.6 kmh SE 4.5 mph7.2 kmh 29.72 in1006.4 mb 0.00 in0.0 mm 0.00 in0.0 mm 0.00 in0.0 mm
08:50 PM 81.5°F27.5°C 67.3°F19.6°C 62% 2.2 mph SE3.5 kmh SE 4.5 mph7.2 kmh 29.72 in1006.4 mb 0.00 in0.0 mm 0.00 in0.0 mm 0.00 in0.0 mm
08:55 PM 81.5°F27.5°C 67.3°F19.6°C 62% 3.1 mph S5.0 kmh S 5.4 mph8.7 kmh 29.72 in1006.4 mb 0.00 in0.0 mm 0.00 in0.0 mm 0.00 in0.0 mm
09:00 PM 81.3°F27.4°C 67.1°F19.5°C 62% 3.1 mph S5.0 kmh S 5.4 mph8.7 kmh 29.73 in1006.8 mb 0.00 in0.0 mm 0.00 in0.0 mm 0.00 in0.0 mm
09:05 PM 81.1°F27.3°C 66.9°F19.4°C 62% 2.2 mph SSE3.5 kmh SSE 4.5 mph7.2 kmh 29.72 in1006.4 mb 0.00 in0.0 mm 0.00 in0.0 mm 0.00 in0.0 mm
09:10 PM 81.0°F27.2°C 67.2°F19.6°C 63% 4.5 mph SSE7.2 kmh SSE 6.9 mph11.1 kmh 29.72 in1006.4 mb 0.00 in0.0 mm 0.00 in0.0 mm 0.00 in0.0 mm
09:15 PM 81.1°F27.3°C 67.4°F19.7°C 63% 3.1 mph SE5.0 kmh SE 6.9 mph11.1 kmh 29.73 in1006.8 mb 0.00 in0.0 mm 0.00 in0.0 mm 0.00 in0.0 mm
09:20 PM 81.0°F27.2°C 67.2°F19.6°C 63% 3.8 mph SSE6.1 kmh SSE 6.9 mph11.1 kmh 29.73 in1006.8 mb 0.00 in0.0 mm 0.00 in0.0 mm 0.00 in0.0 mm
09:25 PM 80.8°F27.1°C 67.1°F19.5°C 63% 3.1 mph SSE5.0 kmh SSE 6.0 mph9.7 kmh 29.73 in1006.8 mb 0.00 in0.0 mm 0.00 in0.0 mm 0.00 in0.0 mm
09:30 PM 80.8°F27.1°C 67.1°F19.5°C 63% 3.1 mph SSE5.0 kmh SSE 7.6 mph12.2 kmh 29.73 in1006.8 mb 0.00 in0.0 mm 0.00 in0.0 mm 0.00 in0.0 mm
09:35 PM 80.8°F27.1°C 67.1°F19.5°C 63% 3.1 mph SSE5.0 kmh SSE 7.6 mph12.2 kmh 29.73 in1006.8 mb 0.00 in0.0 mm 0.00 in0.0 mm 0.00 in0.0 mm
09:40 PM 80.6°F27.0°C 66.9°F19.4°C 63% 2.2 mph SE3.5 kmh SE 5.4 mph8.7 kmh 29.74 in1007.1 mb 0.00 in0.0 mm 0.00 in0.0 mm 0.00 in0.0 mm
09:45 PM 80.4°F26.9°C 66.7°F19.3°C 63% 2.2 mph SE3.5 kmh SE 4.5 mph7.2 kmh 29.74 in1007.1 mb 0.00 in0.0 mm 0.00 in0.0 mm 0.00 in0.0 mm
09:50 PM 80.6°F27.0°C 66.9°F19.4°C 63% 1.6 mph SE2.6 kmh SE 4.5 mph7.2 kmh 29.75 in1007.5 mb 0.00 in0.0 mm 0.00 in0.0 mm 0.00 in0.0 mm
09:55 PM 80.4°F26.9°C 67.2°F19.6°C 64% 2.2 mph SE3.5 kmh SE 5.4 mph8.7 kmh 29.75 in1007.5 mb 0.00 in0.0 mm 0.00 in0.0 mm 0.00 in0.0 mm
10:00 PM 80.1°F26.7°C 66.8°F19.3°C 64% 3.1 mph SE5.0 kmh SE 5.4 mph8.7 kmh 29.75 in1007.5 mb 0.00 in0.0 mm 0.00 in0.0 mm 0.00 in0.0 mm
10:05 PM 79.9°F26.6°C 66.7°F19.3°C 64% 1.6 mph SE2.6 kmh SE 4.5 mph7.2 kmh 29.76 in1007.8 mb 0.00 in0.0 mm 0.00 in0.0 mm 0.00 in0.0 mm
10:10 PM 79.9°F26.6°C 66.7°F19.3°C 64% 3.1 mph S5.0 kmh S 6.0 mph9.7 kmh 29.77 in1008.1 mb 0.00 in0.0 mm 0.00 in0.0 mm 0.00 in0.0 mm
10:15 PM 79.7°F26.5°C 66.5°F19.2°C 64% 3.8 mph SSE6.1 kmh SSE 6.0 mph9.7 kmh 29.76 in1007.8 mb 0.00 in0.0 mm 0.00 in0.0 mm 0.00 in0.0 mm
10:20 PM 79.7°F26.5°C 66.9°F19.4°C 65% 5.4 mph SSE8.7 kmh SSE 9.2 mph14.8 kmh 29.77 in1008.1 mb 0.00 in0.0 mm 0.00 in0.0 mm 0.00 in0.0 mm
10:25 PM 79.7°F26.5°C 66.9°F19.4°C 65% 7.6 mph SE12.2 kmh SE 11.4 mph18.3 kmh 29.76 in1007.8 mb 0.00 in0.0 mm 0.00 in0.0 mm 0.00 in0.0 mm
10:30 PM 79.7°F26.5°C 66.9°F19.4°C 65% 6.0 mph SE9.7 kmh SE 11.4 mph18.3 kmh 29.76 in1007.8 mb 0.00 in0.0 mm 0.00 in0.0 mm 0.00 in0.0 mm
10:35 PM 79.7°F26.5°C 66.9°F19.4°C 65% 9.2 mph SE14.8 kmh SE 13.0 mph20.9 kmh 29.76 in1007.8 mb 0.00 in0.0 mm 0.00 in0.0 mm 0.00 in0.0 mm
10:40 PM 79.7°F26.5°C 66.9°F19.4°C 65% 6.9 mph SE11.1 kmh SE 13.0 mph20.9 kmh 29.77 in1008.1 mb 0.00 in0.0 mm 0.00 in0.0 mm 0.00 in0.0 mm
10:45 PM 79.2°F26.2°C 66.4°F19.1°C 65% 3.8 mph SE6.1 kmh SE 13.6 mph21.9 kmh 29.77 in1008.1 mb 0.00 in0.0 mm 0.00 in0.0 mm 0.00 in0.0 mm
10:50 PM 79.7°F26.5°C 66.9°F19.4°C 65% 6.9 mph SE11.1 kmh SE 13.6 mph21.9 kmh 29.77 in1008.1 mb 0.00 in0.0 mm 0.00 in0.0 mm 0.00 in0.0 mm
10:55 PM 79.5°F26.4°C 66.3°F19.1°C 64% 5.4 mph SE8.7 kmh SE 9.2 mph14.8 kmh 29.77 in1008.1 mb 0.00 in0.0 mm 0.00 in0.0 mm 0.00 in0.0 mm
11:00 PM 79.5°F26.4°C 66.3°F19.1°C 64% 4.5 mph SE7.2 kmh SE 9.2 mph14.8 kmh 29.77 in1008.1 mb 0.00 in0.0 mm 0.00 in0.0 mm 0.00 in0.0 mm
11:05 PM 79.3°F26.3°C 66.1°F18.9°C 64% 3.8 mph SE6.1 kmh SE 8.3 mph13.4 kmh 29.78 in1008.5 mb 0.00 in0.0 mm 0.00 in0.0 mm 0.00 in0.0 mm
11:10 PM 79.2°F26.2°C 66.0°F18.9°C 64% 3.8 mph SE6.1 kmh SE 6.0 mph9.7 kmh 29.79 in1008.8 mb 0.00 in0.0 mm 0.00 in0.0 mm 0.00 in0.0 mm
11:15 PM 79.0°F26.1°C 65.8°F18.8°C 64% 3.8 mph SSE6.1 kmh SSE 6.9 mph11.1 kmh 29.78 in1008.5 mb 0.00 in0.0 mm 0.00 in0.0 mm 0.00 in0.0 mm
11:20 PM 79.0°F26.1°C 66.3°F19.1°C 65% 2.2 mph SE3.5 kmh SE 6.9 mph11.1 kmh 29.78 in1008.5 mb 0.00 in0.0 mm 0.00 in0.0 mm 0.00 in0.0 mm
11:25 PM 78.6°F25.9°C 65.9°F18.8°C 65% 6.0 mph SE9.7 kmh SE 7.6 mph12.2 kmh 29.78 in1008.5 mb 0.00 in0.0 mm 0.00 in0.0 mm 0.00 in0.0 mm
11:30 PM 78.6°F25.9°C 65.9°F18.8°C 65% 4.5 mph ESE7.2 kmh ESE 7.6 mph12.2 kmh 29.78 in1008.5 mb 0.00 in0.0 mm 0.00 in0.0 mm 0.00 in0.0 mm
11:35 PM 78.6°F25.9°C 65.9°F18.8°C 65% 5.4 mph SE8.7 kmh SE 9.2 mph14.8 kmh 29.79 in1008.8 mb 0.00 in0.0 mm 0.00 in0.0 mm 0.00 in0.0 mm
11:40 PM 78.4°F25.8°C 65.7°F18.7°C 65% 3.8 mph SE6.1 kmh SE 9.2 mph14.8 kmh 29.79 in1008.8 mb 0.00 in0.0 mm 0.00 in0.0 mm 0.00 in0.0 mm
11:45 PM 78.4°F25.8°C 65.7°F18.7°C 65% 5.4 mph SE8.7 kmh SE 11.4 mph18.3 kmh 29.79 in1008.8 mb 0.00 in0.0 mm 0.00 in0.0 mm 0.00 in0.0 mm
11:50 PM 78.3°F25.7°C 65.6°F18.7°C 65% 3.8 mph SE6.1 kmh SE 11.4 mph18.3 kmh 29.79 in1008.8 mb 0.00 in0.0 mm 0.00 in0.0 mm 0.00 in0.0 mm
11:55 PM 78.3°F25.7°C 65.6°F18.7°C 65% 5.4 mph SE8.7 kmh SE 9.2 mph14.8 kmh 29.79 in1008.8 mb 0.00 in0.0 mm 0.00 in0.0 mm 0.00 in0.0 mm